createdAt,value
2018-03-01T00:00:22.664Z,99.90
2018-03-01T00:02:49.628Z,99.90
2018-03-01T00:05:16.283Z,99.90
2018-03-01T00:07:42.521Z,99.90
2018-03-01T00:10:08.712Z,99.90
2018-03-01T00:12:35.685Z,99.90
2018-03-01T00:15:01.888Z,99.90
2018-03-01T00:17:28.920Z,99.90
2018-03-01T00:19:55.122Z,99.90
2018-03-01T00:22:33.971Z,99.90
2018-03-01T00:25:00.220Z,99.90
2018-03-01T00:27:27.214Z,99.90
2018-03-01T00:29:53.403Z,99.90
2018-03-01T00:32:20.436Z,99.90
2018-03-01T00:34:47.380Z,99.90
2018-03-01T00:37:13.684Z,99.90
2018-03-01T00:39:39.880Z,99.90
2018-03-01T00:42:06.096Z,99.90
2018-03-01T00:44:32.297Z,99.90
2018-03-01T00:46:59.260Z,99.90
2018-03-01T00:49:26.196Z,99.90
2018-03-01T00:51:53.160Z,99.90
2018-03-01T00:54:19.358Z,99.90
2018-03-01T00:56:45.579Z,99.90
2018-03-01T00:59:11.784Z,99.90
2018-03-01T01:01:37.996Z,99.90
2018-03-01T01:04:04.184Z,99.90
2018-03-01T01:06:31.121Z,99.90
2018-03-01T01:08:58.092Z,99.90
2018-03-01T01:11:24.287Z,99.90
2018-03-01T01:13:50.504Z,99.90
2018-03-01T01:16:16.688Z,99.90
2018-03-01T01:18:42.972Z,99.90
2018-03-01T01:21:09.164Z,99.90
2018-03-01T01:23:35.414Z,99.90
2018-03-01T01:26:01.658Z,99.90
2018-03-01T01:28:28.623Z,99.90
2018-03-01T01:30:55.572Z,99.90
2018-03-01T01:33:22.535Z,99.90
2018-03-01T01:35:48.993Z,99.90
2018-03-01T01:38:15.219Z,99.90
2018-03-01T01:40:41.403Z,99.90
2018-03-01T01:43:08.368Z,99.90
2018-03-01T01:45:34.560Z,99.90
2018-03-01T01:48:00.776Z,99.90
2018-03-01T01:50:27.297Z,99.90
2018-03-01T01:52:53.511Z,99.90
2018-03-01T01:55:19.703Z,99.90
2018-03-01T01:57:46.663Z,99.90
2018-03-01T02:00:13.588Z,99.90
2018-03-01T02:02:40.551Z,99.90
2018-03-01T02:05:07.484Z,99.90
2018-03-01T02:07:34.508Z,99.90
2018-03-01T02:10:00.696Z,99.90
2018-03-01T02:12:26.913Z,99.90
2018-03-01T02:14:53.108Z,99.90
2018-03-01T02:17:20.034Z,99.90
2018-03-01T02:19:46.773Z,99.90
2018-03-01T02:22:14.743Z,99.90
2018-03-01T02:24:41.483Z,99.90
2018-03-01T02:27:07.729Z,99.90
2018-03-01T02:29:33.960Z,99.90
2018-03-01T02:32:00.166Z,99.90
2018-03-01T02:34:26.384Z,99.90
2018-03-01T02:36:52.587Z,99.90
2018-03-01T02:39:18.844Z,99.90
2018-03-01T02:41:45.049Z,99.90
2018-03-01T02:44:11.350Z,99.90
2018-03-01T02:46:38.284Z,99.90
2018-03-01T02:49:04.509Z,99.90
2018-03-01T02:51:30.710Z,99.90
2018-03-01T02:53:56.938Z,99.90
2018-03-01T02:56:23.131Z,99.90
2018-03-01T02:58:49.349Z,99.90
2018-03-01T03:01:16.285Z,99.90
2018-03-01T03:03:43.257Z,99.90
2018-03-01T03:06:09.449Z,99.90
2018-03-01T03:08:35.673Z,99.90
2018-03-01T03:11:01.875Z,99.90
2018-03-01T03:13:28.068Z,99.90
2018-03-01T03:15:54.322Z,99.90
2018-03-01T03:18:20.548Z,99.90
2018-03-01T03:20:46.827Z,99.90
2018-03-01T03:23:13.048Z,99.90
2018-03-01T03:25:39.277Z,99.90
2018-03-01T03:28:06.260Z,99.90
2018-03-01T03:30:32.497Z,99.90
2018-03-01T03:32:58.713Z,99.90
2018-03-01T03:35:24.931Z,99.90
2018-03-01T03:37:51.873Z,99.90
2018-03-01T03:40:18.829Z,99.90
2018-03-01T03:42:45.773Z,99.90
2018-03-01T03:45:12.740Z,99.90
2018-03-01T03:47:38.931Z,99.90
2018-03-01T03:50:05.903Z,99.90
2018-03-01T03:52:32.100Z,99.90
2018-03-01T03:54:59.056Z,99.90
2018-03-01T03:57:25.997Z,99.90
2018-03-01T03:59:52.220Z,99.90
2018-03-01T04:02:18.408Z,99.90
2018-03-01T04:04:44.627Z,99.90
2018-03-01T04:07:10.824Z,99.90
2018-03-01T04:09:37.789Z,99.90
2018-03-01T04:12:03.984Z,99.90
2018-03-01T04:14:30.200Z,99.90
2018-03-01T04:16:56.392Z,99.90
2018-03-01T04:19:22.637Z,99.90
2018-03-01T04:21:48.840Z,99.90
2018-03-01T04:24:15.086Z,99.90
2018-03-01T04:26:41.313Z,99.90
2018-03-01T04:29:07.504Z,99.90
2018-03-01T04:31:34.464Z,99.90
2018-03-01T04:34:00.668Z,99.90
2018-03-01T04:36:27.636Z,99.90
2018-03-01T04:38:53.847Z,99.90
2018-03-01T04:41:20.808Z,99.90
2018-03-01T04:43:47.005Z,99.90
2018-03-01T04:46:13.236Z,99.90
2018-03-01T04:48:39.436Z,99.90
2018-03-01T04:51:05.660Z,99.90
2018-03-01T04:53:31.845Z,99.90
2018-03-01T04:55:58.084Z,99.90
2018-03-01T04:58:24.278Z,99.90
2018-03-01T05:00:50.528Z,99.90
2018-03-01T05:03:17.497Z,99.90
2018-03-01T05:05:43.696Z,99.90
2018-03-01T05:08:10.660Z,99.90
2018-03-01T05:10:36.921Z,99.90
2018-03-01T05:13:03.144Z,99.90
2018-03-01T05:15:29.396Z,99.90
2018-03-01T05:17:55.617Z,99.90
2018-03-01T05:20:21.810Z,99.90
2018-03-01T05:22:48.033Z,99.90
2018-03-01T05:25:14.340Z,99.90
2018-03-01T05:27:40.555Z,99.90
2018-03-01T05:30:06.735Z,99.90
2018-03-01T05:32:32.960Z,99.90
2018-03-01T05:34:59.300Z,99.90
2018-03-01T05:37:25.555Z,99.90
2018-03-01T05:39:51.741Z,99.90
2018-03-01T05:42:17.964Z,99.90
2018-03-01T05:44:44.160Z,99.90
2018-03-01T05:47:10.401Z,99.90
2018-03-01T05:49:36.596Z,99.90
2018-03-01T05:52:02.825Z,99.90
2018-03-01T05:54:29.041Z,99.90
2018-03-01T05:56:55.263Z,99.90
2018-03-01T05:59:21.484Z,99.90
2018-03-01T06:01:47.728Z,99.90
2018-03-01T06:04:13.920Z,99.90
2018-03-01T06:06:41.028Z,99.90
2018-03-01T06:09:07.224Z,99.90
2018-03-01T06:11:33.412Z,99.90
2018-03-01T06:14:00.377Z,99.90
2018-03-01T06:16:26.569Z,99.90
2018-03-01T06:18:52.800Z,99.90
2018-03-01T06:21:19.296Z,99.90
2018-03-01T06:23:45.833Z,99.90
2018-03-01T06:26:12.053Z,99.90
2018-03-01T06:28:38.275Z,99.90
2018-03-01T06:31:04.529Z,99.90
2018-03-01T06:33:30.769Z,99.90
2018-03-01T06:35:56.956Z,99.90
2018-03-01T06:38:23.172Z,99.90
2018-03-01T06:40:50.116Z,99.90
2018-03-01T06:43:17.086Z,99.90
2018-03-01T06:45:43.288Z,99.90
2018-03-01T06:48:10.248Z,99.90
2018-03-01T06:50:36.439Z,99.90
2018-03-01T06:53:02.672Z,99.90
2018-03-01T06:55:28.873Z,99.90
2018-03-01T06:57:55.091Z,99.90
2018-03-01T07:00:21.315Z,99.90
2018-03-01T07:02:47.544Z,99.90
2018-03-01T07:05:13.805Z,99.90
2018-03-01T07:07:39.992Z,99.90
2018-03-01T07:10:06.215Z,99.90
2018-03-01T07:12:32.416Z,99.90
2018-03-01T07:14:59.377Z,99.90
2018-03-01T07:17:26.313Z,99.90
2018-03-01T07:19:53.277Z,99.90
2018-03-01T07:22:19.501Z,99.90
2018-03-01T07:24:45.701Z,99.90
2018-03-01T07:27:13.446Z,99.90
2018-03-01T07:29:39.636Z,99.90
2018-03-01T07:32:05.825Z,99.90
2018-03-01T07:34:32.053Z,99.90
2018-03-01T07:36:59.799Z,99.90
2018-03-01T07:39:26.459Z,99.90
2018-03-01T07:41:53.424Z,99.90
2018-03-01T07:44:20.358Z,99.90
2018-03-01T07:46:47.288Z,99.90
2018-03-01T07:49:13.951Z,99.90
2018-03-01T07:51:40.883Z,99.90
2018-03-01T07:54:07.109Z,99.90
2018-03-01T07:56:33.361Z,99.90
2018-03-01T07:59:00.643Z,99.90
2018-03-01T08:01:26.833Z,99.90
2018-03-01T08:03:53.797Z,99.90
2018-03-01T08:06:19.996Z,99.90
2018-03-01T08:08:46.236Z,99.90
2018-03-01T08:11:13.209Z,99.90
2018-03-01T08:13:39.420Z,99.90
2018-03-01T08:16:06.349Z,99.90
2018-03-01T08:18:32.571Z,99.90
2018-03-01T08:20:58.756Z,99.90
2018-03-01T08:23:24.976Z,99.90
2018-03-01T08:25:51.238Z,99.90
2018-03-01T08:28:17.448Z,99.90
2018-03-01T08:30:43.665Z,99.90
2018-03-01T08:33:09.876Z,99.90
2018-03-01T08:35:36.069Z,99.90
2018-03-01T08:38:02.288Z,99.90
2018-03-01T08:40:29.966Z,99.90
2018-03-01T08:42:56.205Z,99.90
2018-03-01T08:45:23.200Z,99.90
2018-03-01T08:47:49.384Z,99.90
2018-03-01T08:50:16.340Z,99.90
2018-03-01T08:52:43.549Z,99.50
2018-03-01T08:55:10.585Z,99.90
2018-03-01T08:57:36.772Z,99.90
2018-03-01T09:00:03.000Z,99.90
2018-03-01T09:02:29.927Z,99.20
2018-03-01T09:04:56.892Z,98.30
2018-03-01T09:07:23.088Z,98.20
2018-03-01T09:09:49.308Z,97.70
2018-03-01T09:12:15.496Z,99.60
2018-03-01T09:14:41.707Z,98.00
2018-03-01T09:17:07.900Z,96.40
2018-03-01T09:19:34.113Z,99.90
2018-03-01T09:22:00.300Z,98.20
2018-03-01T09:24:26.521Z,98.20
2018-03-01T09:26:53.471Z,87.50
2018-03-01T09:29:19.689Z,86.70
2018-03-01T09:31:46.621Z,91.70
2018-03-01T09:34:12.853Z,91.70
2018-03-01T09:36:39.797Z,91.00
2018-03-01T09:39:06.752Z,83.10
2018-03-01T09:41:33.680Z,78.00
2018-03-01T09:43:59.903Z,78.00
2018-03-01T09:46:26.830Z,82.30
2018-03-01T09:48:53.058Z,81.40
2018-03-01T09:51:19.540Z,69.90
2018-03-01T09:53:46.492Z,74.10
2018-03-01T09:56:13.452Z,63.60
2018-03-01T09:58:39.745Z,63.20
2018-03-01T10:01:06.233Z,61.50
2018-03-01T10:03:32.516Z,57.80
2018-03-01T10:05:59.520Z,64.90
2018-03-01T10:08:25.720Z,64.10
2018-03-01T10:10:51.933Z,59.90
2018-03-01T10:13:18.865Z,48.00
2018-03-01T10:15:45.081Z,47.70
2018-03-01T10:18:11.272Z,47.20
2018-03-01T10:20:37.599Z,47.90
2018-03-01T10:23:07.701Z,49.70
2018-03-01T10:25:35.098Z,44.70
2018-03-01T10:28:01.328Z,43.70
2018-03-01T10:30:27.558Z,43.40
2018-03-01T10:32:53.761Z,41.90
2018-03-01T10:35:19.997Z,43.50
2018-03-01T10:37:46.188Z,43.00
2018-03-01T10:40:13.148Z,42.80
2018-03-01T10:42:39.344Z,42.80
2018-03-01T10:45:05.560Z,44.90
2018-03-01T10:47:31.749Z,49.10
2018-03-01T10:49:57.997Z,44.60
2018-03-01T10:52:24.213Z,44.10
2018-03-01T10:54:50.404Z,43.30
2018-03-01T10:57:16.632Z,43.00
2018-03-01T10:59:43.556Z,38.90
2018-03-01T11:02:09.771Z,39.00
2018-03-01T11:04:35.960Z,39.50
2018-03-01T11:07:02.176Z,39.40
2018-03-01T11:09:28.380Z,37.10
2018-03-01T11:11:54.648Z,37.50
2018-03-01T11:14:20.832Z,38.10
2018-03-01T11:16:47.049Z,37.40
2018-03-01T11:19:13.260Z,36.40
2018-03-01T11:21:39.477Z,35.70
2018-03-01T11:24:05.728Z,34.10
2018-03-01T11:26:31.977Z,33.60
2018-03-01T11:28:58.171Z,34.20
2018-03-01T11:31:31.324Z,34.00
2018-03-01T11:33:58.274Z,31.70
2018-03-01T11:36:24.488Z,31.70
2018-03-01T11:38:51.412Z,33.80
2018-03-01T11:41:17.628Z,33.90
2018-03-01T11:43:43.818Z,32.10
2018-03-01T11:46:10.038Z,31.70
2018-03-01T11:48:36.288Z,31.80
2018-03-01T11:51:02.532Z,31.80
2018-03-01T11:53:28.721Z,31.60
2018-03-01T11:55:54.932Z,32.30
2018-03-01T11:58:21.856Z,29.70
2018-03-01T12:00:48.042Z,29.70
2018-03-01T12:03:14.265Z,31.50
2018-03-01T12:05:40.493Z,31.80
2018-03-01T12:08:06.680Z,31.40
2018-03-01T12:10:32.936Z,31.20
2018-03-01T12:12:59.852Z,30.30
2018-03-01T12:15:26.808Z,28.70
2018-03-01T12:17:53.742Z,29.10
2018-03-01T12:20:19.970Z,28.60
2018-03-01T12:22:46.156Z,30.00
2018-03-01T12:25:12.378Z,28.80
2018-03-01T12:27:38.596Z,29.20
2018-03-01T12:30:04.808Z,29.70
2018-03-01T12:32:31.732Z,30.30
2018-03-01T12:34:57.953Z,30.30
2018-03-01T12:37:24.141Z,29.00
2018-03-01T12:39:50.373Z,28.60
2018-03-01T12:42:16.576Z,29.00
2018-03-01T12:44:43.502Z,28.50
2018-03-01T12:47:09.725Z,28.60
2018-03-01T12:49:36.684Z,30.00
2018-03-01T12:52:03.686Z,29.90
2018-03-01T12:54:29.896Z,30.00
2018-03-01T12:56:56.128Z,30.80
2018-03-01T12:59:22.639Z,29.40
2018-03-01T13:01:48.955Z,28.90
2018-03-01T13:04:16.191Z,29.10
2018-03-01T13:06:42.424Z,29.60
2018-03-01T13:09:08.628Z,29.40
2018-03-01T13:11:35.066Z,29.60
2018-03-01T13:14:01.308Z,29.80
2018-03-01T13:16:27.525Z,29.80
2018-03-01T13:18:53.759Z,31.00
2018-03-01T13:21:19.973Z,30.10
2018-03-01T13:23:46.216Z,30.70
2018-03-01T13:26:12.440Z,30.50
2018-03-01T13:28:38.708Z,31.20
2018-03-01T13:31:05.656Z,30.10
2018-03-01T13:33:36.657Z,30.00
2018-03-01T13:36:02.849Z,29.90
2018-03-01T13:38:29.484Z,31.20
2018-03-01T13:40:55.697Z,31.60
2018-03-01T13:43:22.686Z,30.90
2018-03-01T13:48:46.601Z,30.60
2018-03-01T13:51:12.804Z,30.70
2018-03-01T13:53:39.052Z,30.80
2018-03-01T13:56:05.281Z,30.80
2018-03-01T13:58:31.515Z,31.30
2018-03-01T14:00:57.725Z,30.10
2018-03-01T14:03:23.957Z,29.70
2018-03-01T14:05:57.189Z,31.40
2018-03-01T14:08:23.429Z,31.60
2018-03-01T14:10:50.376Z,32.10
2018-03-01T14:13:17.361Z,31.70
2018-03-01T14:15:43.570Z,31.60
2018-03-01T14:21:24.625Z,32.10
2018-03-01T14:23:51.866Z,32.30
2018-03-01T14:26:22.888Z,31.30
2018-03-01T14:28:50.169Z,32.10
2018-03-01T14:31:16.436Z,32.10
2018-03-01T14:33:42.681Z,33.30
2018-03-01T14:36:08.877Z,32.90
2018-03-01T14:38:35.832Z,33.40
2018-03-01T14:41:02.768Z,33.20
2018-03-01T14:43:29.732Z,33.10
2018-03-01T14:45:56.661Z,33.50
2018-03-01T14:48:23.628Z,33.20
2018-03-01T14:50:49.821Z,33.20
2018-03-01T14:53:16.032Z,35.20
2018-03-01T14:55:42.228Z,36.30
2018-03-01T14:58:08.449Z,37.50
2018-03-01T15:00:34.645Z,38.70
2018-03-01T15:03:00.864Z,39.50
2018-03-01T15:05:27.056Z,40.80
2018-03-01T15:07:53.279Z,40.60
2018-03-01T15:10:19.528Z,40.30
2018-03-01T15:12:45.753Z,46.20
2018-03-01T15:15:11.933Z,44.30
2018-03-01T15:17:38.912Z,48.70
2018-03-01T15:20:05.105Z,48.70
2018-03-01T15:22:32.040Z,57.50
2018-03-01T15:24:58.273Z,57.70
2018-03-01T15:27:25.409Z,70.80
2018-03-01T15:29:51.597Z,69.70
2018-03-01T15:32:17.780Z,77.00
2018-03-01T15:34:44.004Z,81.30
2018-03-01T15:37:10.193Z,89.00
2018-03-01T15:39:36.434Z,92.20
2018-03-01T15:42:02.655Z,90.90
2018-03-01T15:44:28.848Z,93.30
2018-03-01T15:46:55.304Z,95.60
2018-03-01T15:49:21.500Z,96.80
2018-03-01T15:51:48.460Z,95.90
2018-03-01T15:54:14.912Z,96.10
2018-03-01T15:56:41.134Z,95.80
2018-03-01T15:59:07.319Z,95.50
2018-03-01T16:01:34.283Z,96.80
2018-03-01T16:04:01.221Z,98.70
2018-03-01T16:06:28.152Z,98.00
2018-03-01T16:08:54.376Z,98.00
2018-03-01T16:11:21.306Z,99.90
2018-03-01T16:13:47.524Z,99.90
2018-03-01T16:16:13.717Z,99.90
2018-03-01T16:18:39.941Z,99.90
2018-03-01T16:21:06.893Z,99.90
2018-03-01T16:23:33.109Z,99.90
2018-03-01T16:26:00.041Z,99.90
2018-03-01T16:28:27.036Z,99.90
2018-03-01T16:30:53.224Z,99.90
2018-03-01T16:33:20.189Z,99.90
2018-03-01T16:35:46.380Z,99.90
2018-03-01T16:38:13.369Z,99.90
2018-03-01T16:40:39.761Z,99.90
2018-03-01T16:43:05.956Z,99.90
2018-03-01T16:45:32.225Z,99.90
2018-03-01T16:47:58.425Z,99.90
2018-03-01T16:50:24.639Z,99.90
2018-03-01T16:52:50.893Z,99.90
2018-03-01T16:55:17.425Z,99.90
2018-03-01T16:57:43.650Z,99.90
2018-03-01T17:00:09.861Z,99.90
2018-03-01T17:02:36.072Z,99.90
2018-03-01T17:05:02.256Z,99.90
2018-03-01T17:07:29.212Z,99.90
2018-03-01T17:09:56.198Z,99.90
2018-03-01T17:12:22.421Z,99.90
2018-03-01T17:14:48.644Z,99.90
2018-03-01T17:17:14.893Z,99.90
2018-03-01T17:19:41.173Z,99.90
2018-03-01T17:22:07.360Z,99.90
2018-03-01T17:24:33.585Z,99.90
2018-03-01T17:26:59.780Z,99.90
2018-03-01T17:29:26.840Z,99.90
2018-03-01T17:31:53.028Z,99.90
2018-03-01T17:34:19.217Z,99.90
2018-03-01T17:36:45.437Z,99.90
2018-03-01T17:39:11.690Z,99.90
2018-03-01T17:41:37.908Z,99.90
2018-03-01T17:44:04.101Z,99.90
2018-03-01T17:46:31.076Z,99.90
2018-03-01T17:48:57.263Z,99.90
2018-03-01T17:51:24.225Z,99.90
2018-03-01T17:53:51.157Z,99.90
2018-03-01T17:56:18.126Z,99.90
2018-03-01T17:58:44.388Z,99.90
2018-03-01T18:01:10.620Z,99.90
2018-03-01T18:03:37.192Z,99.90
2018-03-01T18:06:03.412Z,99.90
2018-03-01T18:08:29.612Z,99.90
2018-03-01T18:10:55.828Z,99.90
2018-03-01T18:13:22.021Z,99.90
2018-03-01T18:15:49.048Z,99.90
2018-03-01T18:18:15.976Z,99.90
2018-03-01T18:20:42.228Z,99.90
2018-03-01T18:23:08.439Z,99.90
2018-03-01T18:25:34.644Z,99.90
2018-03-01T18:28:00.897Z,99.90
2018-03-01T18:30:27.092Z,99.90
2018-03-01T18:32:53.312Z,99.90
2018-03-01T18:35:19.505Z,99.90
2018-03-01T18:37:46.469Z,99.90
2018-03-01T18:40:12.680Z,99.90
2018-03-01T18:42:39.648Z,99.90
2018-03-01T18:45:05.852Z,99.90
2018-03-01T18:47:32.821Z,99.90
2018-03-01T18:50:05.941Z,99.90
2018-03-01T18:52:32.129Z,99.90
2018-03-01T18:54:59.068Z,99.90
2018-03-01T18:57:26.366Z,99.90
2018-03-01T18:59:52.586Z,99.90
2018-03-01T19:02:18.813Z,99.90
2018-03-01T19:04:45.005Z,99.90
2018-03-01T19:07:11.964Z,99.90
2018-03-01T19:09:38.892Z,99.90
2018-03-01T19:12:05.866Z,99.90
2018-03-01T19:14:32.077Z,99.90
2018-03-01T19:16:59.371Z,99.90
2018-03-01T19:19:25.578Z,99.90
2018-03-01T19:21:51.805Z,99.90
2018-03-01T19:24:18.004Z,99.90
2018-03-01T19:26:44.964Z,99.90
2018-03-01T19:29:11.934Z,99.90
2018-03-01T19:31:38.120Z,99.90
2018-03-01T19:34:04.340Z,99.90
2018-03-01T19:36:30.580Z,99.90
2018-03-01T19:38:56.764Z,99.90
2018-03-01T19:41:23.018Z,99.90
2018-03-01T19:43:49.228Z,99.90
2018-03-01T19:46:15.460Z,99.90
2018-03-01T19:48:41.648Z,99.90
2018-03-01T19:51:07.859Z,99.90
2018-03-01T19:53:34.819Z,99.90
2018-03-01T19:56:01.780Z,99.90
2018-03-01T19:58:27.972Z,99.90
2018-03-01T20:00:54.969Z,99.90
2018-03-01T20:03:21.160Z,99.90
2018-03-01T20:05:48.116Z,99.90
2018-03-01T20:08:15.054Z,99.90
2018-03-01T20:10:42.033Z,99.90
2018-03-01T20:13:08.233Z,99.90
2018-03-01T20:15:35.201Z,99.90
2018-03-01T20:18:01.397Z,99.90
2018-03-01T20:20:28.365Z,99.90
2018-03-01T20:22:54.561Z,99.90
2018-03-01T20:25:20.757Z,99.90
2018-03-01T20:27:46.974Z,99.90
2018-03-01T20:30:13.249Z,99.90
2018-03-01T20:32:39.464Z,99.90
2018-03-01T20:35:05.665Z,99.90
2018-03-01T20:37:31.909Z,99.90
2018-03-01T20:39:58.101Z,99.90
2018-03-01T20:42:24.322Z,99.90
2018-03-01T20:44:50.570Z,99.90
2018-03-01T20:47:17.533Z,99.90
2018-03-01T20:49:43.728Z,99.90
2018-03-01T20:52:09.953Z,99.90
2018-03-01T20:54:36.880Z,99.90
2018-03-01T20:57:03.844Z,99.90
2018-03-01T20:59:30.773Z,99.90
2018-03-01T21:01:57.733Z,99.90
2018-03-01T21:04:24.669Z,99.90
2018-03-01T21:06:51.676Z,99.90
2018-03-01T21:09:17.868Z,99.90
2018-03-01T21:11:44.096Z,99.90
2018-03-01T21:14:10.526Z,99.90
2018-03-01T21:16:36.757Z,99.90
2018-03-01T21:19:02.960Z,99.90
2018-03-01T21:21:29.932Z,99.90
2018-03-01T21:23:56.137Z,99.90
2018-03-01T21:26:23.136Z,99.90
2018-03-01T21:28:49.365Z,99.90
2018-03-01T21:31:15.572Z,99.90
2018-03-01T21:33:41.796Z,99.90
2018-03-01T21:36:08.012Z,99.90
2018-03-01T21:38:34.817Z,99.90
2018-03-01T21:41:01.133Z,99.90
2018-03-01T21:43:27.381Z,99.90
2018-03-01T21:45:53.576Z,99.90
2018-03-01T21:48:19.869Z,99.90
2018-03-01T21:50:46.809Z,99.90
2018-03-01T21:53:13.781Z,99.90
2018-03-01T21:55:39.972Z,99.90
2018-03-01T21:58:06.201Z,99.90
2018-03-01T22:00:32.413Z,99.90
2018-03-01T22:02:58.633Z,99.90
2018-03-01T22:05:24.821Z,99.90
2018-03-01T22:07:51.025Z,99.90
2018-03-01T22:10:17.996Z,99.90
2018-03-01T22:12:44.193Z,99.90
2018-03-01T22:15:14.053Z,99.90
2018-03-01T22:17:40.249Z,99.90
2018-03-01T22:20:07.281Z,99.90
2018-03-01T22:22:33.481Z,99.90
2018-03-01T22:24:59.816Z,99.90
2018-03-01T22:27:26.003Z,99.90
2018-03-01T22:29:52.363Z,99.90
2018-03-01T22:32:18.553Z,99.90
2018-03-01T22:34:45.520Z,99.90
2018-03-01T22:37:11.712Z,99.90
2018-03-01T22:39:37.933Z,99.90
2018-03-01T22:42:04.119Z,99.90
2018-03-01T22:44:30.344Z,99.90
2018-03-01T22:46:56.780Z,99.90
2018-03-01T22:49:23.016Z,99.90
2018-03-01T22:51:49.267Z,99.90
2018-03-01T22:54:15.432Z,99.90
2018-03-01T22:56:42.397Z,99.90
2018-03-01T22:59:08.595Z,99.90
2018-03-01T23:01:35.564Z,99.90
2018-03-01T23:04:01.753Z,99.90
2018-03-01T23:06:27.976Z,99.90
2018-03-01T23:08:54.160Z,99.90
2018-03-01T23:11:20.383Z,99.90
2018-03-01T23:13:46.577Z,99.90
2018-03-01T23:16:12.813Z,99.90
2018-03-01T23:18:39.009Z,99.90
2018-03-01T23:21:05.240Z,99.90
2018-03-01T23:23:31.432Z,99.90
2018-03-01T23:25:57.652Z,99.90
2018-03-01T23:28:23.895Z,99.90
2018-03-01T23:30:50.126Z,99.90
2018-03-01T23:33:16.348Z,99.90
2018-03-01T23:35:42.592Z,99.90
2018-03-01T23:38:09.028Z,99.90
2018-03-01T23:40:35.248Z,99.90
2018-03-01T23:43:01.436Z,99.90
2018-03-01T23:45:28.405Z,99.90
2018-03-01T23:47:54.641Z,99.90
2018-03-01T23:50:20.864Z,99.90
2018-03-01T23:52:47.071Z,99.90
2018-03-01T23:55:14.047Z,99.90
2018-03-01T23:57:40.247Z,99.90
